createdAt,value
2017-12-16T00:00:01.150Z,-5.65
2017-12-16T00:01:01.153Z,-5.69
2017-12-16T00:02:01.148Z,-5.71
2017-12-16T00:03:01.156Z,-5.69
2017-12-16T00:04:01.151Z,-5.74
2017-12-16T00:05:01.159Z,-5.69
2017-12-16T00:06:01.163Z,-5.79
2017-12-16T00:07:01.163Z,-5.69
2017-12-16T00:08:01.159Z,-5.74
2017-12-16T00:09:01.162Z,-5.72
2017-12-16T00:10:01.169Z,-5.62
2017-12-16T00:11:01.174Z,-5.61
2017-12-16T00:12:01.164Z,-5.66
2017-12-16T00:13:01.172Z,-5.72
2017-12-16T00:14:01.175Z,-5.65
2017-12-16T00:15:01.175Z,-5.75
2017-12-16T00:16:01.181Z,-5.79
2017-12-16T00:17:01.176Z,-5.79
2017-12-16T00:18:01.176Z,-5.82
2017-12-16T00:19:01.186Z,-5.83
2017-12-16T00:20:01.178Z,-5.84
2017-12-16T00:21:01.187Z,-5.93
2017-12-16T00:22:01.216Z,-5.93
2017-12-16T00:23:01.185Z,-5.98
2017-12-16T00:24:01.190Z,-6.01
2017-12-16T00:25:01.192Z,-6.05
2017-12-16T00:26:01.188Z,-5.97
2017-12-16T00:27:01.189Z,-6.05
2017-12-16T00:28:01.197Z,-6.04
2017-12-16T00:29:01.192Z,-6.04
2017-12-16T00:30:01.202Z,-6.05
2017-12-16T00:31:01.200Z,-6.01
2017-12-16T00:32:01.196Z,-6.01
2017-12-16T00:33:01.204Z,-6.01
2017-12-16T00:34:01.201Z,-6.08
2017-12-16T00:35:01.207Z,-6.11
2017-12-16T00:36:01.203Z,-6.21
2017-12-16T00:37:01.209Z,-6.28
2017-12-16T00:38:01.206Z,-6.28
2017-12-16T00:39:01.210Z,-6.31
2017-12-16T00:40:01.214Z,-6.29
2017-12-16T00:41:01.217Z,-6.29
2017-12-16T00:42:01.216Z,-6.29
2017-12-16T00:43:01.212Z,-6.26
2017-12-16T00:44:01.216Z,-6.26
2017-12-16T00:45:01.218Z,-6.26
2017-12-16T00:46:01.221Z,-6.31
2017-12-16T00:47:01.223Z,-6.26
2017-12-16T00:48:01.219Z,-6.25
2017-12-16T00:49:01.219Z,-6.19
2017-12-16T00:50:01.222Z,-6.37
2017-12-16T00:51:01.233Z,-6.25
2017-12-16T00:52:01.225Z,-6.42
2017-12-16T00:53:01.230Z,-6.36
2017-12-16T00:54:01.229Z,-6.39
2017-12-16T00:55:01.232Z,-6.32
2017-12-16T00:56:01.233Z,-6.37
2017-12-16T00:57:01.230Z,-6.32
2017-12-16T00:58:01.237Z,-6.39
2017-12-16T00:59:01.236Z,-6.39
2017-12-16T01:00:01.233Z,-6.42
2017-12-16T01:01:01.234Z,-6.32
2017-12-16T01:02:01.241Z,-6.23
2017-12-16T01:03:01.236Z,-6.26
2017-12-16T01:04:01.244Z,-6.21
2017-12-16T01:05:01.245Z,-6.16
2017-12-16T01:06:01.239Z,-6.13
2017-12-16T01:07:01.248Z,-6.10
2017-12-16T01:08:01.244Z,-6.03
2017-12-16T01:09:01.242Z,-5.98
2017-12-16T01:10:01.251Z,-6.04
2017-12-16T01:11:01.252Z,-6.07
2017-12-16T01:12:01.250Z,-5.98
2017-12-16T01:13:01.247Z,-6.04
2017-12-16T01:14:01.260Z,-6.01
2017-12-16T01:15:01.251Z,-6.01
2017-12-16T01:16:01.256Z,-6.04
2017-12-16T01:17:01.252Z,-6.04
2017-12-16T01:18:01.261Z,-5.98
2017-12-16T01:19:01.256Z,-6.03
2017-12-16T01:20:01.266Z,-5.98
2017-12-16T01:21:01.255Z,-6.01
2017-12-16T01:22:01.258Z,-6.07
2017-12-16T01:23:01.268Z,-6.01
2017-12-16T01:24:01.265Z,-6.03
2017-12-16T01:25:01.266Z,-6.00
2017-12-16T01:26:01.267Z,-6.08
2017-12-16T01:27:01.270Z,-6.10
2017-12-16T01:28:01.264Z,-5.97
2017-12-16T01:29:01.270Z,-6.05
2017-12-16T01:30:01.266Z,-6.04
2017-12-16T01:31:01.267Z,-6.08
2017-12-16T01:32:01.273Z,-6.00
2017-12-16T01:33:01.270Z,-6.07
2017-12-16T01:34:01.272Z,-6.01
2017-12-16T01:35:01.272Z,-6.15
2017-12-16T01:36:01.277Z,-6.25
2017-12-16T01:37:01.274Z,-6.16
2017-12-16T01:38:01.276Z,-6.19
2017-12-16T01:39:01.281Z,-6.07
2017-12-16T01:40:01.281Z,-6.15
2017-12-16T01:41:01.282Z,-6.04
2017-12-16T01:42:01.285Z,-6.03
2017-12-16T01:43:01.285Z,-6.03
2017-12-16T01:44:01.283Z,-5.89
2017-12-16T01:45:01.286Z,-5.86
2017-12-16T01:46:01.282Z,-5.86
2017-12-16T01:47:01.288Z,-5.92
2017-12-16T01:48:01.289Z,-5.76
2017-12-16T01:49:01.292Z,-5.82
2017-12-16T01:50:01.294Z,-5.79
2017-12-16T01:51:01.296Z,-5.86
2017-12-16T01:52:01.290Z,-5.74
2017-12-16T01:53:01.291Z,-5.79
2017-12-16T01:54:01.293Z,-5.79
2017-12-16T01:55:01.294Z,-5.76
2017-12-16T01:56:01.356Z,-5.80
2017-12-16T01:57:01.297Z,-5.79
2017-12-16T01:58:01.304Z,-5.86
2017-12-16T01:59:01.301Z,-6.00
2017-12-16T02:00:01.304Z,-6.01
2017-12-16T02:01:01.301Z,-6.08
2017-12-16T02:02:01.306Z,-6.21
2017-12-16T02:03:01.303Z,-6.31
2017-12-16T02:04:01.303Z,-6.21
2017-12-16T02:05:01.305Z,-6.22
2017-12-16T02:06:01.333Z,-6.19
2017-12-16T02:07:01.307Z,-6.29
2017-12-16T02:08:01.308Z,-6.32
2017-12-16T02:09:01.313Z,-6.23
2017-12-16T02:10:01.315Z,-6.18
2017-12-16T02:11:01.316Z,-6.40
2017-12-16T02:12:01.317Z,-6.34
2017-12-16T02:13:01.318Z,-6.42
2017-12-16T02:14:01.313Z,-6.49
2017-12-16T02:15:01.319Z,-6.52
2017-12-16T02:16:01.315Z,-6.65
2017-12-16T02:17:01.323Z,-6.86
2017-12-16T02:18:01.323Z,-6.87
2017-12-16T02:19:01.318Z,-6.98
2017-12-16T02:20:01.317Z,-6.86
2017-12-16T02:21:01.328Z,-6.87
2017-12-16T02:22:01.327Z,-6.84
2017-12-16T02:23:01.322Z,-6.73
2017-12-16T02:24:01.321Z,-6.76
2017-12-16T02:25:01.321Z,-6.77
2017-12-16T02:26:01.330Z,-6.68
2017-12-16T02:27:01.325Z,-6.73
2017-12-16T02:28:01.324Z,-6.71
2017-12-16T02:29:01.329Z,-6.59
2017-12-16T02:30:01.325Z,-6.58
2017-12-16T02:31:01.326Z,-6.54
2017-12-16T02:32:01.332Z,-6.43
2017-12-16T02:33:01.327Z,-6.47
2017-12-16T02:34:01.328Z,-6.49
2017-12-16T02:35:01.327Z,-6.50
2017-12-16T02:36:01.335Z,-6.40
2017-12-16T02:37:01.335Z,-6.39
2017-12-16T02:38:01.330Z,-6.40
2017-12-16T02:39:01.336Z,-6.25
2017-12-16T02:40:01.335Z,-6.26
2017-12-16T02:41:01.331Z,-6.26
2017-12-16T02:42:01.341Z,-6.39
2017-12-16T02:43:01.336Z,-6.39
2017-12-16T02:44:01.330Z,-6.31
2017-12-16T02:45:01.342Z,-6.39
2017-12-16T02:46:01.332Z,-6.42
2017-12-16T02:47:01.333Z,-6.34
2017-12-16T02:48:01.333Z,-6.29
2017-12-16T02:49:01.334Z,-6.29
2017-12-16T02:50:01.333Z,-6.36
2017-12-16T02:51:01.334Z,-6.28
2017-12-16T02:52:01.340Z,-6.28
2017-12-16T02:53:01.346Z,-6.36
2017-12-16T02:54:01.342Z,-6.15
2017-12-16T02:55:01.337Z,-6.32
2017-12-16T02:56:01.342Z,-6.26
2017-12-16T02:57:01.346Z,-6.23
2017-12-16T02:58:01.338Z,-6.22
2017-12-16T02:59:01.339Z,-6.22
2017-12-16T03:00:01.338Z,-6.19
2017-12-16T03:01:01.340Z,-6.18
2017-12-16T03:02:01.346Z,-6.15
2017-12-16T03:03:01.340Z,-6.16
2017-12-16T03:04:01.339Z,-6.10
2017-12-16T03:05:01.341Z,-6.10
2017-12-16T03:06:01.352Z,-6.04
2017-12-16T03:07:01.344Z,-6.23
2017-12-16T03:08:01.349Z,-6.05
2017-12-16T03:09:01.342Z,-6.13
2017-12-16T03:10:01.351Z,-6.18
2017-12-16T03:11:01.345Z,-6.13
2017-12-16T03:12:01.350Z,-6.00
2017-12-16T03:13:01.344Z,-6.04
2017-12-16T03:14:01.344Z,-6.07
2017-12-16T03:15:01.352Z,-6.04
2017-12-16T03:16:01.353Z,-5.98
2017-12-16T03:17:01.352Z,-5.89
2017-12-16T03:18:01.351Z,-5.92
2017-12-16T03:19:01.350Z,-5.79
2017-12-16T03:20:01.348Z,-5.86
2017-12-16T03:21:01.354Z,-5.72
2017-12-16T03:22:01.359Z,-5.76
2017-12-16T03:23:01.356Z,-5.74
2017-12-16T03:24:01.357Z,-5.80
2017-12-16T03:25:01.351Z,-5.74
2017-12-16T03:26:01.359Z,-5.72
2017-12-16T03:27:01.360Z,-5.66
2017-12-16T03:28:01.362Z,-5.75
2017-12-16T03:29:01.363Z,-5.69
2017-12-16T03:30:01.357Z,-5.71
2017-12-16T03:31:01.413Z,-5.72
2017-12-16T03:32:01.356Z,-5.69
2017-12-16T03:33:01.365Z,-5.65
2017-12-16T03:34:01.365Z,-5.64
2017-12-16T03:35:01.361Z,-5.68
2017-12-16T03:36:01.368Z,-5.61
2017-12-16T03:37:01.363Z,-5.62
2017-12-16T03:38:01.374Z,-5.61
2017-12-16T03:39:01.367Z,-5.68
2017-12-16T03:40:01.372Z,-5.54
2017-12-16T03:41:01.372Z,-5.53
2017-12-16T03:42:01.375Z,-5.54
2017-12-16T03:43:01.377Z,-5.57
2017-12-16T03:44:01.370Z,-5.64
2017-12-16T03:45:01.382Z,-5.68
2017-12-16T03:46:01.380Z,-5.53
2017-12-16T03:47:01.381Z,-5.57
2017-12-16T03:48:01.377Z,-5.57
2017-12-16T03:49:01.382Z,-5.66
2017-12-16T03:50:01.389Z,-5.61
2017-12-16T03:51:01.386Z,-5.62
2017-12-16T03:52:01.381Z,-5.69
2017-12-16T03:53:01.387Z,-5.61
2017-12-16T03:54:01.390Z,-5.69
2017-12-16T03:55:01.391Z,-5.65
2017-12-16T03:56:01.393Z,-5.64
2017-12-16T03:57:01.388Z,-5.61
2017-12-16T03:58:01.390Z,-5.66
2017-12-16T03:59:01.392Z,-5.68
2017-12-16T04:00:01.401Z,-5.64
2017-12-16T04:01:01.394Z,-5.61
2017-12-16T04:02:01.402Z,-5.66
2017-12-16T04:03:01.399Z,-5.65
2017-12-16T04:04:01.404Z,-5.74
2017-12-16T04:05:01.404Z,-5.69
2017-12-16T04:06:01.401Z,-5.83
2017-12-16T04:07:01.403Z,-5.76
2017-12-16T04:08:01.406Z,-5.74
2017-12-16T04:09:01.410Z,-5.75
2017-12-16T04:10:01.408Z,-5.80
2017-12-16T04:11:01.408Z,-5.74
2017-12-16T04:12:01.414Z,-5.76
2017-12-16T04:13:01.413Z,-5.74
2017-12-16T04:14:01.411Z,-5.69
2017-12-16T04:15:01.414Z,-5.68
2017-12-16T04:16:01.421Z,-5.74
2017-12-16T04:17:01.415Z,-5.72
2017-12-16T04:18:01.431Z,-5.69
2017-12-16T04:19:01.419Z,-5.69
2017-12-16T04:20:01.424Z,-5.71
2017-12-16T04:21:01.429Z,-5.65
2017-12-16T04:22:01.425Z,-5.69
2017-12-16T04:23:01.430Z,-5.72
2017-12-16T04:24:01.447Z,-5.74
2017-12-16T04:25:01.432Z,-5.74
2017-12-16T04:26:01.428Z,-5.74
2017-12-16T04:27:01.432Z,-5.66
2017-12-16T04:28:01.435Z,-5.72
2017-12-16T04:29:01.433Z,-5.79
2017-12-16T04:30:01.434Z,-5.76
2017-12-16T04:31:01.438Z,-5.83
2017-12-16T04:32:01.436Z,-5.89
2017-12-16T04:33:01.451Z,-5.89
2017-12-16T04:34:01.447Z,-5.94
2017-12-16T04:35:01.442Z,-5.92
2017-12-16T04:36:01.445Z,-5.84
2017-12-16T04:37:01.445Z,-5.97
2017-12-16T04:38:01.447Z,-6.00
2017-12-16T04:39:01.449Z,-5.89
2017-12-16T04:40:01.453Z,-6.04
2017-12-16T04:41:01.457Z,-6.04
2017-12-16T04:42:01.459Z,-5.94
2017-12-16T04:43:01.460Z,-6.01
2017-12-16T04:44:01.459Z,-6.10
2017-12-16T04:45:01.459Z,-6.05
2017-12-16T04:46:01.466Z,-6.00
2017-12-16T04:47:01.459Z,-6.11
2017-12-16T04:48:01.468Z,-6.01
2017-12-16T04:49:01.466Z,-6.01
2017-12-16T04:50:01.464Z,-6.08
2017-12-16T04:51:01.471Z,-6.16
2017-12-16T04:52:01.472Z,-6.18
2017-12-16T04:53:01.469Z,-6.19
2017-12-16T04:54:01.470Z,-6.16
2017-12-16T04:55:01.478Z,-6.00
2017-12-16T04:56:01.478Z,-6.07
2017-12-16T04:57:01.480Z,-6.03
2017-12-16T04:58:01.479Z,-5.84
2017-12-16T04:59:01.484Z,-5.80
2017-12-16T05:00:01.480Z,-5.76
2017-12-16T05:01:01.564Z,-5.69
2017-12-16T05:02:01.479Z,-5.71
2017-12-16T05:03:01.482Z,-5.68
2017-12-16T05:04:01.482Z,-5.65
2017-12-16T05:05:01.483Z,-5.59
2017-12-16T05:06:01.489Z,-5.62
2017-12-16T05:07:01.492Z,-5.62
2017-12-16T05:08:01.487Z,-5.61
2017-12-16T05:09:01.498Z,-5.64
2017-12-16T05:10:01.489Z,-5.64
2017-12-16T05:11:01.491Z,-5.66
2017-12-16T05:12:01.491Z,-5.65
2017-12-16T05:13:01.499Z,-5.72
2017-12-16T05:14:01.494Z,-5.65
2017-12-16T05:15:01.502Z,-5.65
2017-12-16T05:16:01.503Z,-5.62
2017-12-16T05:17:01.497Z,-5.64
2017-12-16T05:18:01.501Z,-5.61
2017-12-16T05:19:01.506Z,-5.64
2017-12-16T05:20:01.502Z,-5.62
2017-12-16T05:21:01.505Z,-5.68
2017-12-16T05:22:01.505Z,-5.59
2017-12-16T05:23:01.505Z,-5.66
2017-12-16T05:24:01.519Z,-5.65
2017-12-16T05:25:01.512Z,-5.64
2017-12-16T05:26:01.515Z,-5.61
2017-12-16T05:27:01.508Z,-5.66
2017-12-16T05:28:01.516Z,-5.74
2017-12-16T05:29:01.516Z,-5.76
2017-12-16T05:30:01.521Z,-5.75
2017-12-16T05:31:01.513Z,-5.69
2017-12-16T05:32:01.520Z,-5.68
2017-12-16T05:33:01.516Z,-5.65
2017-12-16T05:34:01.519Z,-5.61
2017-12-16T05:35:01.520Z,-5.66
2017-12-16T05:36:01.527Z,-5.53
2017-12-16T05:37:01.520Z,-5.50
2017-12-16T05:38:01.523Z,-5.50
2017-12-16T05:39:01.526Z,-5.41
2017-12-16T05:40:01.526Z,-5.51
2017-12-16T05:41:01.525Z,-5.46
2017-12-16T05:42:01.527Z,-5.51
2017-12-16T05:43:01.530Z,-5.50
2017-12-16T05:44:01.529Z,-5.51
2017-12-16T05:45:01.536Z,-5.50
2017-12-16T05:46:01.539Z,-5.53
2017-12-16T05:47:01.535Z,-5.48
2017-12-16T05:48:01.540Z,-5.55
2017-12-16T05:49:01.541Z,-5.44
2017-12-16T05:50:01.542Z,-5.50
2017-12-16T05:51:01.541Z,-5.50
2017-12-16T05:52:01.552Z,-5.46
2017-12-16T05:53:01.540Z,-5.43
2017-12-16T05:54:01.541Z,-5.43
2017-12-16T05:55:01.546Z,-5.43
2017-12-16T05:56:01.550Z,-5.44
2017-12-16T05:57:01.546Z,-5.39
2017-12-16T05:58:01.549Z,-5.43
2017-12-16T05:59:01.548Z,-5.41
2017-12-16T06:00:01.549Z,-5.33
2017-12-16T06:01:01.560Z,-5.35
2017-12-16T06:02:01.554Z,-5.44
2017-12-16T06:03:01.560Z,-5.41
2017-12-16T06:04:01.560Z,-5.43
2017-12-16T06:05:01.560Z,-5.41
2017-12-16T06:06:01.570Z,-5.41
2017-12-16T06:07:01.565Z,-5.43
2017-12-16T06:08:01.562Z,-5.44
2017-12-16T06:09:01.569Z,-5.47
2017-12-16T06:10:01.566Z,-5.44
2017-12-16T06:11:01.566Z,-5.44
2017-12-16T06:12:01.572Z,-5.44
2017-12-16T06:13:01.576Z,-5.41
2017-12-16T06:14:01.570Z,-5.46
2017-12-16T06:15:01.572Z,-5.44
2017-12-16T06:16:01.579Z,-5.47
2017-12-16T06:17:01.580Z,-5.50
2017-12-16T06:18:01.583Z,-5.43
2017-12-16T06:19:01.585Z,-5.48
2017-12-16T06:20:01.578Z,-5.48
2017-12-16T06:21:01.579Z,-5.50
2017-12-16T06:22:01.582Z,-5.47
2017-12-16T06:23:01.588Z,-5.47
2017-12-16T06:24:01.591Z,-5.53
2017-12-16T06:25:01.592Z,-5.51
2017-12-16T06:26:01.589Z,-5.50
2017-12-16T06:27:01.596Z,-5.51
2017-12-16T06:28:01.599Z,-5.53
2017-12-16T06:29:01.592Z,-5.50
2017-12-16T06:30:01.600Z,-5.44
2017-12-16T06:31:01.602Z,-5.50
2017-12-16T06:32:01.600Z,-5.47
2017-12-16T06:33:01.608Z,-5.48
2017-12-16T06:34:01.599Z,-5.47
2017-12-16T06:35:01.602Z,-5.50
2017-12-16T06:36:01.604Z,-5.75
2017-12-16T06:37:01.608Z,-5.76
2017-12-16T06:38:01.612Z,-5.90
2017-12-16T06:39:01.606Z,-5.89
2017-12-16T06:40:01.614Z,-5.90
2017-12-16T06:41:01.608Z,-5.90
2017-12-16T06:42:01.616Z,-6.01
2017-12-16T06:43:01.612Z,-5.94
2017-12-16T06:44:01.619Z,-5.94
2017-12-16T06:45:01.621Z,-5.89
2017-12-16T06:46:01.617Z,-5.86
2017-12-16T06:47:01.616Z,-5.90
2017-12-16T06:48:01.630Z,-5.79
2017-12-16T06:49:01.620Z,-5.79
2017-12-16T06:50:01.627Z,-5.82
2017-12-16T06:51:01.632Z,-5.69
2017-12-16T06:52:01.623Z,-5.72
2017-12-16T06:53:01.631Z,-5.62
2017-12-16T06:54:01.631Z,-5.68
2017-12-16T06:55:01.628Z,-5.64
2017-12-16T06:56:01.642Z,-5.66
2017-12-16T06:57:01.630Z,-5.66
2017-12-16T06:58:01.640Z,-5.64
2017-12-16T06:59:01.638Z,-5.59
2017-12-16T07:00:01.635Z,-5.64
2017-12-16T07:01:01.642Z,-5.64
2017-12-16T07:02:01.639Z,-5.55
2017-12-16T07:03:01.639Z,-5.53
2017-12-16T07:04:01.645Z,-5.55
2017-12-16T07:05:01.647Z,-5.48
2017-12-16T07:06:01.648Z,-5.46
2017-12-16T07:07:01.650Z,-5.36
2017-12-16T07:08:01.651Z,-5.41
2017-12-16T07:09:01.653Z,-5.44
2017-12-16T07:10:01.649Z,-5.32
2017-12-16T07:11:01.653Z,-5.30
2017-12-16T07:12:01.651Z,-5.30
2017-12-16T07:13:01.660Z,-5.29
2017-12-16T07:14:01.662Z,-5.26
2017-12-16T07:15:01.657Z,-5.26
2017-12-16T07:16:01.662Z,-5.36
2017-12-16T07:17:01.660Z,-5.29
2017-12-16T07:18:01.662Z,-5.30
2017-12-16T07:19:01.669Z,-5.36
2017-12-16T07:20:01.669Z,-5.25
2017-12-16T07:21:01.671Z,-5.35
2017-12-16T07:22:01.666Z,-5.32
2017-12-16T07:23:01.675Z,-5.33
2017-12-16T07:24:01.674Z,-5.41
2017-12-16T07:25:01.679Z,-5.33
2017-12-16T07:26:01.675Z,-5.32
2017-12-16T07:27:01.675Z,-5.36
2017-12-16T07:28:01.680Z,-5.36
2017-12-16T07:29:01.678Z,-5.39
2017-12-16T07:30:01.684Z,-5.36
2017-12-16T07:31:01.688Z,-5.43
2017-12-16T07:32:01.685Z,-5.43
2017-12-16T07:33:01.690Z,-5.46
2017-12-16T07:34:01.692Z,-5.44
2017-12-16T07:35:01.694Z,-5.43
2017-12-16T07:36:01.688Z,-5.39
2017-12-16T07:37:01.696Z,-5.39
2017-12-16T07:38:01.698Z,-5.36
2017-12-16T07:39:01.703Z,-5.47
2017-12-16T07:40:01.695Z,-5.43
2017-12-16T07:41:01.701Z,-5.47
2017-12-16T07:42:01.703Z,-5.46
2017-12-16T07:43:01.705Z,-5.44
2017-12-16T07:44:01.709Z,-5.43
2017-12-16T07:45:01.702Z,-5.36
2017-12-16T07:46:01.704Z,-5.46
2017-12-16T07:47:01.710Z,-5.39
2017-12-16T07:48:01.716Z,-5.43
2017-12-16T07:49:01.709Z,-5.43
2017-12-16T07:50:01.711Z,-5.39
2017-12-16T07:51:01.710Z,-5.37
2017-12-16T07:52:01.711Z,-5.53
2017-12-16T07:53:01.725Z,-5.44
2017-12-16T07:54:01.716Z,-5.43
2017-12-16T07:55:01.717Z,-5.48
2017-12-16T07:56:01.722Z,-5.54
2017-12-16T07:57:01.721Z,-5.53
2017-12-16T07:58:01.723Z,-5.53
2017-12-16T07:59:01.723Z,-5.55
2017-12-16T08:00:01.757Z,-5.53
2017-12-16T08:01:01.732Z,-5.44
2017-12-16T08:02:01.735Z,-5.41
2017-12-16T08:03:01.734Z,-5.44
2017-12-16T08:04:01.728Z,-5.39
2017-12-16T08:05:01.736Z,-5.41
2017-12-16T08:06:01.744Z,-5.39
2017-12-16T08:07:01.751Z,-5.32
2017-12-16T08:08:01.735Z,-5.26
2017-12-16T08:09:01.737Z,-5.32
2017-12-16T08:10:01.743Z,-5.30
2017-12-16T08:11:01.749Z,-5.32
2017-12-16T08:12:01.746Z,-5.29
2017-12-16T08:13:01.743Z,-5.30
2017-12-16T08:14:01.750Z,-5.29
2017-12-16T08:15:01.753Z,-5.25
2017-12-16T08:16:01.746Z,-5.22
2017-12-16T08:17:01.746Z,-5.18
2017-12-16T08:18:01.753Z,-5.18
2017-12-16T08:19:01.760Z,-5.14
2017-12-16T08:20:01.753Z,-5.08
2017-12-16T08:21:01.759Z,-5.11
2017-12-16T08:22:01.755Z,-5.07
2017-12-16T08:23:01.760Z,-5.11
2017-12-16T08:24:01.760Z,-5.18
2017-12-16T08:25:01.760Z,-5.11
2017-12-16T08:26:01.770Z,-5.11
2017-12-16T08:27:01.772Z,-4.95
2017-12-16T08:28:01.780Z,-4.93
2017-12-16T08:29:01.765Z,-4.85
2017-12-16T08:30:01.774Z,-4.83
2017-12-16T08:31:01.775Z,-4.83
2017-12-16T08:32:01.775Z,-4.78
2017-12-16T08:33:01.778Z,-4.75
2017-12-16T08:34:01.780Z,-4.81
2017-12-16T08:35:01.786Z,-4.68
2017-12-16T08:36:01.778Z,-4.68
2017-12-16T08:37:01.778Z,-4.67
2017-12-16T08:38:01.787Z,-4.61
2017-12-16T08:39:01.795Z,-4.67
2017-12-16T08:40:01.791Z,-4.67
2017-12-16T08:41:01.794Z,-4.69
2017-12-16T08:42:01.794Z,-4.72
2017-12-16T08:43:01.795Z,-4.67
2017-12-16T08:44:01.792Z,-4.58
2017-12-16T08:45:01.793Z,-4.61
2017-12-16T08:46:01.800Z,-4.58
2017-12-16T08:47:01.806Z,-4.56
2017-12-16T08:48:01.807Z,-4.47
2017-12-16T08:49:01.810Z,-4.51
2017-12-16T08:50:01.809Z,-4.51
2017-12-16T08:51:01.808Z,-4.42
2017-12-16T08:52:01.816Z,-4.43
2017-12-16T08:53:01.814Z,-4.51
2017-12-16T08:54:01.818Z,-4.49
2017-12-16T08:55:01.817Z,-4.43
2017-12-16T08:56:01.825Z,-4.33
2017-12-16T08:57:01.825Z,-4.36
2017-12-16T08:58:01.834Z,-4.42
2017-12-16T08:59:01.830Z,-4.35
2017-12-16T09:00:01.832Z,-4.38
2017-12-16T09:01:01.837Z,-4.47
2017-12-16T09:02:01.834Z,-4.36
2017-12-16T09:03:01.839Z,-4.30
2017-12-16T09:04:01.836Z,-4.32
2017-12-16T09:05:01.839Z,-4.33
2017-12-16T09:06:01.841Z,-4.30
2017-12-16T09:07:01.842Z,-4.58
2017-12-16T09:08:01.842Z,-4.65
2017-12-16T09:09:01.855Z,-4.65
2017-12-16T09:10:01.857Z,-4.61
2017-12-16T09:11:01.864Z,-4.50
2017-12-16T09:12:01.857Z,-4.60
2017-12-16T09:13:01.865Z,-4.63
2017-12-16T09:14:01.862Z,-4.63
2017-12-16T09:15:01.868Z,-4.65
2017-12-16T09:16:01.869Z,-4.49
2017-12-16T09:17:01.865Z,-4.46
2017-12-16T09:18:01.874Z,-4.47
2017-12-16T09:19:01.869Z,-4.51
2017-12-16T09:20:01.880Z,-4.47
2017-12-16T09:21:01.881Z,-4.51
2017-12-16T09:22:01.879Z,-4.43
2017-12-16T09:23:01.890Z,-4.47
2017-12-16T09:24:01.886Z,-4.60
2017-12-16T09:25:01.888Z,-4.69
2017-12-16T09:26:01.887Z,-4.79
2017-12-16T09:27:01.889Z,-4.77
2017-12-16T09:28:01.913Z,-4.78
2017-12-16T09:29:01.892Z,-4.72
2017-12-16T09:30:01.916Z,-4.77
2017-12-16T09:31:01.897Z,-4.60
2017-12-16T09:32:01.898Z,-4.65
2017-12-16T09:33:01.901Z,-4.67
2017-12-16T09:34:01.905Z,-4.58
2017-12-16T09:35:01.912Z,-4.53
2017-12-16T09:36:01.916Z,-4.47
2017-12-16T09:37:01.909Z,-4.49
2017-12-16T09:38:01.967Z,-4.40
2017-12-16T09:39:01.940Z,-4.40
2017-12-16T09:40:01.930Z,-4.32
2017-12-16T09:41:01.920Z,-4.30
2017-12-16T09:42:01.921Z,-4.32
2017-12-16T09:43:01.930Z,-4.25
2017-12-16T09:44:01.950Z,-4.12
2017-12-16T09:45:01.936Z,-4.14
2017-12-16T09:46:01.935Z,-4.01
2017-12-16T09:47:01.954Z,-3.97
2017-12-16T09:48:01.943Z,-3.88
2017-12-16T09:49:01.942Z,-3.86
2017-12-16T09:50:01.943Z,-3.76
2017-12-16T09:51:01.946Z,-3.69
2017-12-16T09:52:01.952Z,-3.54
2017-12-16T09:53:01.957Z,-3.28
2017-12-16T09:54:01.954Z,-3.30
2017-12-16T09:55:01.955Z,-3.15
2017-12-16T09:56:01.962Z,-3.28
2017-12-16T09:57:01.961Z,-3.35
2017-12-16T09:58:01.966Z,-3.54
2017-12-16T09:59:01.969Z,-3.72
2017-12-16T10:00:01.967Z,-3.64
2017-12-16T10:01:01.977Z,-3.76
2017-12-16T10:02:01.978Z,-3.88
2017-12-16T10:03:01.996Z,-3.69
2017-12-16T10:04:01.980Z,-3.64
2017-12-16T10:05:01.981Z,-3.54
2017-12-16T10:06:02.011Z,-3.57
2017-12-16T10:07:01.997Z,-3.69
2017-12-16T10:08:01.988Z,-3.53
2017-12-16T10:09:02.000Z,-3.60
2017-12-16T10:10:01.995Z,-3.64
2017-12-16T10:11:01.997Z,-3.67
2017-12-16T10:12:02.008Z,-3.76
2017-12-16T10:13:02.006Z,-3.85
2017-12-16T10:14:02.012Z,-3.76
2017-12-16T10:15:02.020Z,-3.64
2017-12-16T10:16:02.018Z,-3.75
2017-12-16T10:17:02.018Z,-3.60
2017-12-16T10:18:02.028Z,-3.63
2017-12-16T10:19:02.031Z,-3.69
2017-12-16T10:20:02.028Z,-3.62
2017-12-16T10:21:02.038Z,-3.85
2017-12-16T10:22:02.034Z,-3.91
2017-12-16T10:23:02.031Z,-3.94
2017-12-16T10:24:02.044Z,-4.01
2017-12-16T10:25:02.043Z,-4.21
2017-12-16T10:26:02.047Z,-4.29
2017-12-16T10:27:02.042Z,-4.50
2017-12-16T10:28:02.070Z,-4.47
2017-12-16T10:29:02.055Z,-4.54
2017-12-16T10:30:02.061Z,-4.50
2017-12-16T10:31:02.058Z,-4.49
2017-12-16T10:32:02.072Z,-4.53
2017-12-16T10:33:02.095Z,-4.39
2017-12-16T10:34:02.061Z,-4.38
2017-12-16T10:35:02.081Z,-4.18
2017-12-16T10:36:02.069Z,-4.14
2017-12-16T10:37:02.073Z,-3.97
2017-12-16T10:38:02.075Z,-3.88
2017-12-16T10:39:02.087Z,-4.00
2017-12-16T10:40:02.076Z,-4.01
2017-12-16T10:41:02.089Z,-4.01
2017-12-16T10:42:02.084Z,-3.91
2017-12-16T10:43:02.085Z,-3.83
2017-12-16T10:44:02.088Z,-3.83
2017-12-16T10:45:02.090Z,-3.75
2017-12-16T10:46:02.103Z,-3.72
2017-12-16T10:47:02.103Z,-3.72
2017-12-16T10:48:02.131Z,-3.69
2017-12-16T10:49:02.108Z,-3.71
2017-12-16T10:50:02.116Z,-3.71
2017-12-16T10:51:02.197Z,-3.76
2017-12-16T10:52:02.117Z,-3.88
2017-12-16T10:53:03.145Z,-3.86
2017-12-16T10:54:02.141Z,-3.75
2017-12-16T10:55:02.139Z,-3.59
2017-12-16T10:56:02.139Z,-3.57
2017-12-16T10:57:02.132Z,-3.59
2017-12-16T10:58:02.151Z,-3.69
2017-12-16T10:59:02.128Z,-3.66
2017-12-16T11:00:02.131Z,-3.69
2017-12-16T11:01:02.141Z,-3.49
2017-12-16T11:02:02.140Z,-3.43
2017-12-16T11:03:02.169Z,-3.54
2017-12-16T11:04:02.171Z,-3.53
2017-12-16T11:05:02.149Z,-3.62
2017-12-16T11:06:02.158Z,-3.67
2017-12-16T11:07:02.166Z,-3.69
2017-12-16T11:08:02.154Z,-3.79
2017-12-16T11:09:02.165Z,-3.86
2017-12-16T11:10:02.165Z,-3.85
2017-12-16T11:11:02.165Z,-3.85
2017-12-16T11:12:02.165Z,-3.86
2017-12-16T11:13:02.182Z,-3.75
2017-12-16T11:14:02.172Z,-3.71
2017-12-16T11:15:02.188Z,-3.79
2017-12-16T11:16:02.185Z,-3.94
2017-12-16T11:17:02.182Z,-3.90
2017-12-16T11:18:02.190Z,-3.83
2017-12-16T11:19:02.194Z,-3.71
2017-12-16T11:20:02.202Z,-3.66
2017-12-16T11:21:02.200Z,-3.69
2017-12-16T11:22:02.198Z,-3.62
2017-12-16T11:23:02.203Z,-3.78
2017-12-16T11:24:02.203Z,-3.71
2017-12-16T11:25:02.216Z,-3.63
2017-12-16T11:26:02.213Z,-3.67
2017-12-16T11:27:02.216Z,-3.48
2017-12-16T11:28:02.223Z,-3.48
2017-12-16T11:29:02.221Z,-3.38
2017-12-16T11:30:02.223Z,-3.36
2017-12-16T11:31:02.232Z,-3.27
2017-12-16T11:32:02.233Z,-3.23
2017-12-16T11:33:02.233Z,-3.18
2017-12-16T11:34:02.245Z,-3.10
2017-12-16T11:35:02.243Z,-3.06
2017-12-16T11:36:02.270Z,-2.97
2017-12-16T11:37:02.243Z,-2.86
2017-12-16T11:38:02.255Z,-2.82
2017-12-16T11:39:02.281Z,-2.82
2017-12-16T11:40:02.273Z,-2.67
2017-12-16T11:41:02.261Z,-2.78
2017-12-16T11:42:02.263Z,-2.58
2017-12-16T11:43:02.319Z,-2.49
2017-12-16T11:44:02.259Z,-2.52
2017-12-16T11:45:02.331Z,-2.42
2017-12-16T11:46:02.271Z,-2.35
2017-12-16T11:47:02.285Z,-2.34
2017-12-16T11:48:02.281Z,-2.37
2017-12-16T11:49:02.280Z,-2.34
2017-12-16T11:50:02.285Z,-2.30
2017-12-16T11:51:02.292Z,-2.24
2017-12-16T11:52:02.289Z,-2.27
2017-12-16T11:53:02.303Z,-2.35
2017-12-16T11:54:02.303Z,-2.34
2017-12-16T11:55:02.304Z,-2.43
2017-12-16T11:56:03.320Z,-2.43
2017-12-16T11:57:02.335Z,-2.46
2017-12-16T11:58:02.319Z,-2.73
2017-12-16T11:59:02.322Z,-2.71
2017-12-16T12:00:02.350Z,-3.49
2017-12-16T12:01:02.333Z,-3.85
2017-12-16T12:02:02.333Z,-3.86
2017-12-16T12:03:02.332Z,-3.78
2017-12-16T12:04:02.332Z,-3.64
2017-12-16T12:05:02.342Z,-3.67
2017-12-16T12:06:02.378Z,-3.56
2017-12-16T12:07:02.346Z,-3.54
2017-12-16T12:08:02.352Z,-3.69
2017-12-16T12:09:02.357Z,-3.71
2017-12-16T12:10:02.358Z,-3.56
2017-12-16T12:11:02.359Z,-3.56
2017-12-16T12:12:02.365Z,-3.60
2017-12-16T12:13:02.363Z,-3.49
2017-12-16T12:14:02.371Z,-3.45
2017-12-16T12:15:02.420Z,-3.53
2017-12-16T12:16:02.377Z,-3.62
2017-12-16T12:17:02.378Z,-3.75
2017-12-16T12:18:02.392Z,-3.69
2017-12-16T12:19:02.390Z,-3.60
2017-12-16T12:20:02.395Z,-3.85
2017-12-16T12:21:02.392Z,-3.88
2017-12-16T12:22:02.399Z,-3.67
2017-12-16T12:23:02.402Z,-3.72
2017-12-16T12:24:02.405Z,-3.64
2017-12-16T12:25:02.407Z,-3.71
2017-12-16T12:26:02.410Z,-3.88
2017-12-16T12:27:02.410Z,-3.88
2017-12-16T12:28:02.422Z,-3.82
2017-12-16T12:29:02.417Z,-3.82
2017-12-16T12:30:02.419Z,-3.97
2017-12-16T12:31:02.429Z,-3.91
2017-12-16T12:32:02.426Z,-3.85
2017-12-16T12:33:02.428Z,-3.93
2017-12-16T12:34:02.442Z,-3.88
2017-12-16T12:35:02.434Z,-3.76
2017-12-16T12:36:02.438Z,-3.72
2017-12-16T12:37:02.444Z,-3.69
2017-12-16T12:38:02.458Z,-3.71
2017-12-16T12:39:02.458Z,-3.57
2017-12-16T12:40:02.450Z,-3.69
2017-12-16T12:41:02.454Z,-3.62
2017-12-16T12:42:02.467Z,-3.76
2017-12-16T12:43:02.462Z,-3.79
2017-12-16T12:44:02.469Z,-3.57
2017-12-16T12:45:02.475Z,-3.54
2017-12-16T12:46:02.471Z,-3.46
2017-12-16T12:47:02.474Z,-3.31
2017-12-16T12:48:02.476Z,-3.24
2017-12-16T12:49:02.481Z,-3.39
2017-12-16T12:50:02.487Z,-3.41
2017-12-16T12:51:02.494Z,-3.33
2017-12-16T12:52:02.492Z,-3.36